Time;durP1;ratioP1;P1;durP2;ratioP2;P2;SDS_P1;SDS_P2;PMS_P1;PMS_P2;Temp;Humidity;BMP_temperature;BMP_pressure;BME280_temperature;BME280_humidity;BME280_pressure;Samples;Min_cycle;Max_cycle;Signal;HPM_P1;HPM_P2
2022/04/01 00:01:29;;;;;;;;;;;4.20;53.50;;;;;;5151680;27;19911;-75
2022/04/01 00:03:54;;;;;;;;;;;4.10;53.60;;;;;;5151575;27;20281;-75
2022/04/01 00:06:20;;;;;;;;;;;4.10;53.50;;;;;;5151703;27;19963;-74
2022/04/01 00:08:45;;;;;;;;;;;4.10;53.40;;;;;;5151635;27;19915;-74
2022/04/01 00:11:11;;;;;;;;;;;4.00;53.50;;;;;;5133382;27;19911;-75
2022/04/01 00:13:37;;;;;;;;;;;3.90;53.50;;;;;;5151539;27;20363;-75
2022/04/01 00:16:03;;;;;;;;;;;3.90;53.50;;;;;;5132896;27;20403;-75
2022/04/01 00:18:29;;;;;;;;;;;3.90;53.50;;;;;;5151591;27;19911;-75
2022/04/01 00:20:54;;;;;;;;;;;3.80;53.50;;;;;;5151754;27;19911;-75
2022/04/01 00:23:20;;;;;;;;;;;3.80;53.50;;;;;;5151567;27;19911;-75
2022/04/01 00:25:46;;;;;;;;;;;3.80;53.70;;;;;;5151537;27;19912;-75
2022/04/01 00:28:11;;;;;;;;;;;3.70;53.80;;;;;;5151381;27;19911;-75
2022/04/01 00:30:38;;;;;;;;;;;3.70;53.80;;;;;;5151018;27;20429;-75
2022/04/01 00:33:08;;;;;;;;;;;3.70;53.80;;;;;;5151360;27;19915;-75
2022/04/01 00:35:36;;;;;;;;;;;3.70;53.70;;;;;;5151251;27;19911;-76
2022/04/01 00:38:02;;;;;;;;;;;3.70;53.70;;;;;;5151009;27;20353;-75
2022/04/01 00:40:28;;;;;;;;;;;3.70;53.80;;;;;;5151126;27;19907;-75
2022/04/01 00:42:53;;;;;;;;;;;3.70;54.00;;;;;;5132554;27;20281;-75
2022/04/01 00:45:19;;;;;;;;;;;3.70;54.20;;;;;;5132489;27;20318;-76
2022/04/01 00:47:45;;;;;;;;;;;3.70;54.30;;;;;;5150980;27;19951;-75
2022/04/01 00:50:10;;;;;;;;;;;3.70;54.40;;;;;;5150888;27;20396;-65
2022/04/01 00:52:36;;;;;;;;;;;3.60;54.40;;;;;;5132213;27;20186;-75
2022/04/01 00:55:04;;;;;;;;;;;3.60;54.40;;;;;;5132348;27;19915;-75
2022/04/01 00:57:30;;;;;;;;;;;3.60;54.30;;;;;;5150725;27;19907;-75
2022/04/01 00:59:55;;;;;;;;;;;3.60;54.20;;;;;;5150740;27;19912;-75
2022/04/01 01:02:21;;;;;;;;;;;3.50;54.70;;;;;;5150686;27;20391;-75
2022/04/01 01:04:47;;;;;;;;;;;3.50;54.00;;;;;;5150579;27;20373;-75
2022/04/01 01:07:13;;;;;;;;;;;3.30;54.00;;;;;;5150556;27;19951;-75
2022/04/01 01:09:39;;;;;;;;;;;3.30;54.20;;;;;;5150410;27;19911;-76
2022/04/01 01:12:06;;;;;;;;;;;3.20;54.10;;;;;;5131267;27;19907;-75
2022/04/01 01:14:34;;;;;;;;;;;3.20;54.20;;;;;;5150212;27;19943;-75
2022/04/01 01:17:01;;;;;;;;;;;3.20;54.50;;;;;;5150352;27;19994;-75
2022/04/01 01:19:27;;;;;;;;;;;3.20;54.70;;;;;;5131690;27;19934;-75
2022/04/01 01:21:54;;;;;;;;;;;3.30;54.60;;;;;;5131872;27;19907;-75
2022/04/01 01:24:31;;;;;;;;;;;3.20;54.60;;;;;;5150099;27;19915;-75
2022/04/01 01:26:57;;;;;;;;;;;3.30;54.70;;;;;;5150304;27;19997;-75
2022/04/01 01:29:23;;;;;;;;;;;3.20;54.50;;;;;;5149953;27;19946;-75
2022/04/01 01:31:49;;;;;;;;;;;3.20;54.40;;;;;;5131513;27;19974;-75
2022/04/01 01:34:16;;;;;;;;;;;3.20;54.70;;;;;;5150031;27;19938;-76
2022/04/01 01:36:41;;;;;;;;;;;3.20;54.80;;;;;;5150209;27;20003;-75
2022/04/01 01:39:07;;;;;;;;;;;3.20;54.90;;;;;;5114299;27;19951;-75
2022/04/01 01:41:32;;;;;;;;;;;3.20;54.90;;;;;;5150098;27;20286;-75
2022/04/01 01:43:59;;;;;;;;;;;3.10;54.80;;;;;;5150085;27;19915;-75
2022/04/01 01:46:24;;;;;;;;;;;3.10;54.70;;;;;;5131930;27;20292;-76
2022/04/01 01:48:50;;;;;;;;;;;3.10;54.70;;;;;;5149965;27;19926;-76
2022/04/01 01:56:44;;;;;;;;;;;3.00;55.30;;;;;;5150375;27;19921;-75
2022/04/01 01:59:11;;;;;;;;;;;3.00;55.60;;;;;;5149926;27;19980;-75
2022/04/01 02:01:40;;;;;;;;;;;3.00;55.60;;;;;;5131217;27;19943;-75
2022/04/01 02:04:06;;;;;;;;;;;3.00;55.60;;;;;;5149725;27;20266;-75
2022/04/01 02:06:32;;;;;;;;;;;3.00;55.60;;;;;;5150263;27;19907;-75
2022/04/01 02:08:58;;;;;;;;;;;3.00;55.60;;;;;;5131367;27;20377;-75
2022/04/01 02:11:24;;;;;;;;;;;3.00;55.80;;;;;;5149867;27;19943;-75
2022/04/01 02:13:50;;;;;;;;;;;3.00;55.90;;;;;;5149811;27;19911;-75
2022/04/01 02:16:16;;;;;;;;;;;2.90;56.10;;;;;;5149543;27;19913;-76
2022/04/01 02:18:42;;;;;;;;;;;2.90;56.10;;;;;;5131153;27;19911;-75
2022/04/01 02:21:11;;;;;;;;;;;2.80;56.30;;;;;;5149794;27;20321;-75
2022/04/01 02:23:37;;;;;;;;;;;2.80;56.60;;;;;;5153423;27;19965;-75
2022/04/01 02:26:03;;;;;;;;;;;2.70;56.90;;;;;;5153644;27;20370;-75
2022/04/01 02:28:29;;;;;;;;;;;2.70;56.70;;;;;;5153731;27;19911;-75
2022/04/01 02:30:55;;;;;;;;;;;2.70;56.70;;;;;;5135299;27;20366;-75
2022/04/01 02:33:20;;;;;;;;;;;2.70;57.10;;;;;;5135307;27;19912;-75
2022/04/01 02:35:46;;;;;;;;;;;2.60;57.10;;;;;;5153475;27;19919;-75
2022/04/01 02:38:11;;;;;;;;;;;2.60;57.00;;;;;;5134889;27;19986;-75
2022/04/01 02:40:37;;;;;;;;;;;2.60;56.80;;;;;;5153572;27;19907;-75
2022/04/01 02:43:02;;;;;;;;;;;2.60;57.00;;;;;;5134864;27;19911;-75
2022/04/01 02:45:28;;;;;;;;;;;2.60;56.80;;;;;;5153762;27;19911;-75
2022/04/01 02:47:54;;;;;;;;;;;2.60;56.70;;;;;;5134828;27;20017;-75
2022/04/01 02:50:20;;;;;;;;;;;2.60;56.60;;;;;;5153594;27;19907;-75
2022/04/01 02:52:45;;;;;;;;;;;2.60;56.60;;;;;;5153174;27;20011;-75
2022/04/01 02:55:11;;;;;;;;;;;2.60;56.50;;;;;;5153266;27;19963;-75
2022/04/01 02:57:36;;;;;;;;;;;2.60;57.10;;;;;;5134673;27;19915;-76
2022/04/01 03:00:09;;;;;;;;;;;2.60;56.40;;;;;;5153203;27;19915;-75
2022/04/01 03:02:35;;;;;;;;;;;2.60;56.40;;;;;;5153786;27;20310;-75
2022/04/01 03:05:03;;;;;;;;;;;2.60;56.40;;;;;;5134235;27;19928;-75
2022/04/01 03:07:28;;;;;;;;;;;2.70;56.40;;;;;;5153159;27;19911;-75
2022/04/01 03:09:54;;;;;;;;;;;2.70;56.30;;;;;;5134233;27;19922;-75
2022/04/01 03:12:20;;;;;;;;;;;2.80;56.30;;;;;;5153097;27;19943;-75
2022/04/01 03:14:46;;;;;;;;;;;2.80;56.40;;;;;;5152721;27;19967;-75
2022/04/01 03:17:11;;;;;;;;;;;2.80;56.50;;;;;;5152932;27;20369;-75
2022/04/01 03:19:39;;;;;;;;;;;2.80;56.60;;;;;;5134749;27;19933;-75
2022/04/01 03:22:05;;;;;;;;;;;2.80;56.40;;;;;;5134053;27;20349;-75
2022/04/01 03:24:31;;;;;;;;;;;2.80;56.50;;;;;;5152450;27;19994;-75
2022/04/01 03:26:57;;;;;;;;;;;2.80;56.70;;;;;;5133874;27;19915;-75
2022/04/01 03:29:22;;;;;;;;;;;2.80;56.70;;;;;;5152578;27;19914;-75
2022/04/01 03:31:48;;;;;;;;;;;2.70;56.70;;;;;;5152401;27;19930;-76
2022/04/01 03:34:14;;;;;;;;;;;2.70;56.80;;;;;;5151239;27;20373;-76
2022/04/01 03:36:40;;;;;;;;;;;2.70;56.90;;;;;;5152491;27;20014;-75
2022/04/01 03:39:06;;;;;;;;;;;2.60;57.10;;;;;;5152409;27;19911;-75
2022/04/01 03:41:33;;;;;;;;;;;2.60;57.30;;;;;;5133821;27;19907;-75
2022/04/01 03:44:02;;;;;;;;;;;2.50;57.50;;;;;;5152283;27;19961;-75
2022/04/01 03:46:29;;;;;;;;;;;2.50;57.70;;;;;;5133719;27;20002;-75
2022/04/01 03:49:01;;;;;;;;;;;2.40;57.90;;;;;;5152284;27;19925;-75
2022/04/01 03:51:28;;;;;;;;;;;2.40;58.20;;;;;;5151856;27;20297;-75
2022/04/01 03:53:58;;;;;;;;;;;2.30;58.30;;;;;;5151880;27;19910;-74
2022/04/01 03:56:29;;;;;;;;;;;2.20;58.40;;;;;;5151822;27;19907;-75
2022/04/01 03:58:58;;;;;;;;;;;2.10;58.40;;;;;;5151874;27;20333;-75
2022/04/01 04:01:24;;;;;;;;;;;2.10;58.50;;;;;;5151920;27;19907;-76
2022/04/01 04:03:50;;;;;;;;;;;2.00;58.70;;;;;;5151663;27;20292;-75
2022/04/01 04:06:16;;;;;;;;;;;2.00;58.90;;;;;;5133449;27;19915;-75
2022/04/01 04:08:43;;;;;;;;;;;2.00;58.80;;;;;;5133500;27;19911;-75
2022/04/01 04:11:09;;;;;;;;;;;1.90;58.70;;;;;;5152165;27;19907;-74
2022/04/01 04:13:36;;;;;;;;;;;2.00;58.80;;;;;;5133101;27;19919;-75
2022/04/01 04:16:08;;;;;;;;;;;1.90;58.90;;;;;;5151650;27;19907;-76
2022/04/01 04:18:47;;;;;;;;;;;1.90;58.80;;;;;;5151615;27;19919;-75
2022/04/01 04:21:16;;;;;;;;;;;1.90;58.60;;;;;;5151555;27;19933;-75
2022/04/01 04:23:46;;;;;;;;;;;1.90;58.60;;;;;;5132709;27;20356;-75
2022/04/01 04:26:16;;;;;;;;;;;1.90;58.60;;;;;;5151325;27;19938;-76
2022/04/01 04:28:49;;;;;;;;;;;2.00;58.70;;;;;;5151475;27;20398;-75
2022/04/01 04:31:15;;;;;;;;;;;1.90;58.60;;;;;;5132548;27;19930;-75
2022/04/01 04:33:45;;;;;;;;;;;1.90;58.60;;;;;;5151345;27;19911;-75
2022/04/01 04:36:11;;;;;;;;;;;1.90;58.60;;;;;;5132580;27;19907;-75
2022/04/01 04:38:39;;;;;;;;;;;1.90;58.60;;;;;;5151353;27;19915;-75
2022/04/01 04:41:08;;;;;;;;;;;1.90;58.80;;;;;;5150861;27;19907;-76
2022/04/01 04:43:41;;;;;;;;;;;1.90;59.00;;;;;;5132387;27;19916;-75
2022/04/01 04:46:08;;;;;;;;;;;1.90;59.00;;;;;;5150738;27;20289;-75
2022/04/01 04:48:34;;;;;;;;;;;1.90;58.90;;;;;;5150951;27;19918;-75
2022/04/01 04:51:02;;;;;;;;;;;1.80;58.80;;;;;;5151114;27;19937;-75
2022/04/01 04:53:30;;;;;;;;;;;1.80;58.50;;;;;;5150904;27;19943;-76
2022/04/01 04:55:58;;;;;;;;;;;1.70;58.50;;;;;;5150846;27;19907;-74
2022/04/01 04:58:26;;;;;;;;;;;1.70;58.50;;;;;;5150758;27;20363;-75
2022/04/01 05:00:54;;;;;;;;;;;1.60;58.40;;;;;;5132140;27;20349;-75
2022/04/01 05:03:19;;;;;;;;;;;1.60;58.40;;;;;;5150794;27;19911;-75
2022/04/01 05:05:46;;;;;;;;;;;1.60;58.40;;;;;;5150683;27;19918;-76
2022/04/01 05:08:30;;;;;;;;;;;1.60;58.60;;;;;;5150555;27;19906;-75
2022/04/01 05:10:56;;;;;;;;;;;1.60;58.40;;;;;;5150893;27;20085;-75
2022/04/01 05:13:42;;;;;;;;;;;1.60;58.50;;;;;;5131855;27;20107;-74
2022/04/01 05:16:10;;;;;;;;;;;1.70;58.70;;;;;;5138254;27;20418;-75
2022/04/01 05:18:40;;;;;;;;;;;1.70;58.90;;;;;;5150222;27;19906;-75
2022/04/01 05:21:10;;;;;;;;;;;1.70;59.00;;;;;;5131716;27;19907;-75
2022/04/01 05:23:38;;;;;;;;;;;1.70;59.30;;;;;;5150273;27;19911;-75
2022/04/01 05:26:14;;;;;;;;;;;1.70;59.10;;;;;;5150216;27;19993;-76
2022/04/01 05:28:48;;;;;;;;;;;1.70;59.40;;;;;;5150216;27;19930;-75
2022/04/01 05:31:20;;;;;;;;;;;1.70;59.40;;;;;;5149948;27;19918;-74
2022/04/01 05:33:52;;;;;;;;;;;1.70;59.20;;;;;;5150271;27;20365;-74
2022/04/01 05:36:18;;;;;;;;;;;1.60;59.10;;;;;;5150422;27;19911;-74
2022/04/01 05:38:43;;;;;;;;;;;1.60;59.20;;;;;;5114360;27;20035;-75
2022/04/01 05:41:10;;;;;;;;;;;1.60;59.20;;;;;;5150189;27;19958;-75
2022/04/01 05:43:37;;;;;;;;;;;1.60;59.20;;;;;;5149992;27;19911;-75
2022/04/01 05:46:03;;;;;;;;;;;1.60;59.20;;;;;;5149870;27;20357;-75
2022/04/01 05:48:30;;;;;;;;;;;1.60;59.30;;;;;;5131394;27;20014;-75
2022/04/01 05:50:56;;;;;;;;;;;1.60;59.60;;;;;;5150167;27;19907;-75
2022/04/01 05:53:22;;;;;;;;;;;1.60;60.00;;;;;;5131239;27;19911;-75
2022/04/01 05:55:51;;;;;;;;;;;1.50;60.20;;;;;;5131121;27;19957;-75
2022/04/01 05:58:16;;;;;;;;;;;1.50;60.30;;;;;;5149269;27;19907;-76
2022/04/01 06:00:51;;;;;;;;;;;1.50;60.30;;;;;;5149869;27;20272;-76
2022/04/01 06:03:17;;;;;;;;;;;1.50;60.10;;;;;;5131130;27;19915;-75
2022/04/01 06:05:42;;;;;;;;;;;1.40;60.20;;;;;;5130819;27;19959;-75
2022/04/01 06:08:27;;;;;;;;;;;1.40;60.20;;;;;;5149487;27;19961;-74
2022/04/01 06:10:52;;;;;;;;;;;1.40;60.20;;;;;;5149797;27;19950;-75
2022/04/01 06:13:21;;;;;;;;;;;1.40;60.20;;;;;;5149510;27;19965;-76
2022/04/01 06:16:02;;;;;;;;;;;1.40;60.20;;;;;;5149557;27;20406;-76
2022/04/01 06:18:41;;;;;;;;;;;1.40;60.10;;;;;;5149627;27;20282;-75
2022/04/01 06:21:09;;;;;;;;;;;1.40;60.30;;;;;;5149416;27;19911;-75
2022/04/01 06:23:34;;;;;;;;;;;1.50;60.70;;;;;;5149467;27;19926;-75
2022/04/01 06:26:00;;;;;;;;;;;1.50;60.70;;;;;;5149428;27;19914;-75
2022/04/01 06:28:31;;;;;;;;;;;1.50;60.60;;;;;;5149251;27;19907;-75
2022/04/01 06:31:15;;;;;;;;;;;1.50;60.70;;;;;;5149417;27;19915;-76
2022/04/01 06:33:41;;;;;;;;;;;1.50;60.80;;;;;;5149154;27;20437;-75
2022/04/01 06:36:13;;;;;;;;;;;1.50;60.70;;;;;;5149202;27;20379;-75
2022/04/01 06:38:45;;;;;;;;;;;1.60;60.50;;;;;;5149046;27;19907;-75
2022/04/01 06:41:21;;;;;;;;;;;1.60;60.70;;;;;;5130947;27;19907;-75
2022/04/01 06:43:47;;;;;;;;;;;1.60;61.00;;;;;;5148713;27;19941;-76
2022/04/01 06:46:12;;;;;;;;;;;1.60;60.70;;;;;;5148779;27;19907;-76
2022/04/01 06:48:40;;;;;;;;;;;1.70;60.90;;;;;;5113266;27;20379;-76
2022/04/01 06:51:06;;;;;;;;;;;1.70;61.00;;;;;;5149358;27;19960;-76
2022/04/01 06:53:34;;;;;;;;;;;1.70;61.10;;;;;;5148640;27;19914;-75
2022/04/01 06:56:00;;;;;;;;;;;1.70;61.20;;;;;;5148844;27;19983;-75
2022/04/01 06:58:26;;;;;;;;;;;1.80;61.20;;;;;;5148620;27;19911;-75
2022/04/01 07:00:51;;;;;;;;;;;1.80;61.10;;;;;;5148624;27;19936;-75
2022/04/01 07:03:17;;;;;;;;;;;1.90;61.20;;;;;;5148853;27;19967;-75
2022/04/01 07:05:43;;;;;;;;;;;1.90;61.40;;;;;;5148942;27;19956;-75
2022/04/01 07:08:08;;;;;;;;;;;2.00;61.50;;;;;;5148724;27;19914;-74
2022/04/01 07:10:34;;;;;;;;;;;2.00;61.60;;;;;;5133905;27;19912;-76
2022/04/01 07:13:00;;;;;;;;;;;2.10;61.80;;;;;;5152643;27;19918;-76
2022/04/01 07:15:25;;;;;;;;;;;2.10;61.80;;;;;;5134048;27;19922;-75
2022/04/01 07:17:51;;;;;;;;;;;2.20;61.80;;;;;;5133773;27;19918;-75
2022/04/01 07:20:17;;;;;;;;;;;2.20;61.80;;;;;;5152436;27;19954;-75
2022/04/01 07:22:43;;;;;;;;;;;2.30;62.00;;;;;;5152545;27;20277;-76
2022/04/01 07:25:10;;;;;;;;;;;2.40;62.10;;;;;;5152216;27;19951;-75
2022/04/01 07:27:36;;;;;;;;;;;2.40;62.00;;;;;;5133200;27;19907;-75
2022/04/01 07:30:03;;;;;;;;;;;2.50;61.90;;;;;;5152265;27;20014;-76
2022/04/01 07:32:32;;;;;;;;;;;2.60;61.70;;;;;;5133297;27;19930;-76
2022/04/01 07:35:08;;;;;;;;;;;2.70;61.70;;;;;;5151931;27;19907;-75
2022/04/01 07:37:34;;;;;;;;;;;2.80;61.80;;;;;;5152154;27;20377;-75
2022/04/01 07:39:59;;;;;;;;;;;3.00;61.90;;;;;;5151993;27;20000;-75
2022/04/01 07:42:25;;;;;;;;;;;3.10;61.80;;;;;;5133354;27;19917;-76
2022/04/01 07:44:51;;;;;;;;;;;3.30;62.00;;;;;;5151543;27;20017;-75
2022/04/01 07:47:18;;;;;;;;;;;3.60;62.20;;;;;;5151982;27;19961;-76
2022/04/01 07:49:47;;;;;;;;;;;3.90;62.70;;;;;;5151649;27;19915;-76
2022/04/01 07:52:13;;;;;;;;;;;4.60;63.40;;;;;;5151460;27;20029;-76
2022/04/01 07:54:40;;;;;;;;;;;5.80;64.30;;;;;;5132742;27;19911;-75
2022/04/01 07:57:06;;;;;;;;;;;7.20;63.90;;;;;;5151056;27;19918;-75
2022/04/01 07:59:32;;;;;;;;;;;8.60;62.50;;;;;;5151063;27;19911;-76
2022/04/01 08:01:58;;;;;;;;;;;9.60;60.70;;;;;;5151258;27;19911;-75
2022/04/01 08:04:27;;;;;;;;;;;10.10;59.40;;;;;;5151045;27;20341;-75
2022/04/01 08:06:57;;;;;;;;;;;10.40;58.80;;;;;;5150758;27;19950;-76
2022/04/01 08:09:26;;;;;;;;;;;10.90;59.00;;;;;;5114676;27;19915;-75
2022/04/01 08:11:52;;;;;;;;;;;11.40;58.80;;;;;;5150700;27;19907;-76
2022/04/01 08:14:17;;;;;;;;;;;12.00;59.00;;;;;;5150703;27;19915;-76
2022/04/01 08:16:44;;;;;;;;;;;12.80;59.40;;;;;;5150631;27;19990;-76
2022/04/01 08:19:10;;;;;;;;;;;13.70;59.70;;;;;;5150810;27;20013;-76
2022/04/01 08:21:35;;;;;;;;;;;14.40;59.50;;;;;;5150602;27;19979;-76
2022/04/01 08:24:01;;;;;;;;;;;15.00;60.00;;;;;;5131832;27;19921;-76
2022/04/01 08:26:27;;;;;;;;;;;15.70;60.20;;;;;;5132301;27;20380;-75
2022/04/01 08:28:52;;;;;;;;;;;16.40;59.80;;;;;;5150634;27;19907;-76
2022/04/01 08:31:18;;;;;;;;;;;17.10;59.50;;;;;;5149802;27;19923;-76
2022/04/01 08:33:45;;;;;;;;;;;17.70;59.40;;;;;;5150547;27;19915;-76
2022/04/01 08:36:11;;;;;;;;;;;18.10;59.50;;;;;;5149986;27;19964;-76
2022/04/01 08:38:37;;;;;;;;;;;18.50;59.80;;;;;;5150481;27;19919;-76
2022/04/01 08:41:03;;;;;;;;;;;19.00;60.00;;;;;;5150719;27;19911;-76
2022/04/01 08:43:33;;;;;;;;;;;19.40;58.70;;;;;;5150397;27;20009;-76
2022/04/01 08:46:01;;;;;;;;;;;19.70;57.50;;;;;;5149751;27;19907;-76
2022/04/01 08:48:27;;;;;;;;;;;19.80;57.10;;;;;;5150058;27;19911;-76
2022/04/01 08:50:53;;;;;;;;;;;20.00;56.90;;;;;;5149928;27;19907;-76
2022/04/01 08:53:19;;;;;;;;;;;20.10;56.60;;;;;;5149793;27;20425;-76
2022/04/01 08:55:46;;;;;;;;;;;20.30;56.70;;;;;;5149466;27;19907;-76
2022/04/01 08:58:11;;;;;;;;;;;20.40;55.70;;;;;;5149586;27;19942;-76
2022/04/01 09:00:37;;;;;;;;;;;20.70;56.00;;;;;;5149194;27;20374;-75
2022/04/01 09:03:04;;;;;;;;;;;21.00;56.80;;;;;;5148802;27;19995;-75
2022/04/01 09:05:30;;;;;;;;;;;21.40;57.20;;;;;;5149049;27;19911;-76
2022/04/01 09:08:00;;;;;;;;;;;21.70;56.80;;;;;;5149147;27;19922;-81
2022/04/01 09:10:25;;;;;;;;;;;21.50;56.00;;;;;;5150495;27;20393;-64
2022/04/01 09:12:51;;;;;;;;;;;21.00;57.20;;;;;;5149372;27;19934;-73
2022/04/01 09:15:18;;;;;;;;;;;20.80;57.80;;;;;;5148917;27;19994;-76
2022/04/01 09:17:45;;;;;;;;;;;20.70;58.30;;;;;;5150079;27;19914;-75
2022/04/01 09:20:11;;;;;;;;;;;20.70;58.80;;;;;;5149969;27;20270;-77
2022/04/01 09:22:37;;;;;;;;;;;20.50;58.70;;;;;;5131789;27;19950;-76
2022/04/01 09:25:04;;;;;;;;;;;20.50;59.20;;;;;;5150244;27;19967;-75
2022/04/01 09:27:36;;;;;;;;;;;20.70;59.20;;;;;;5149700;27;19907;-73
2022/04/01 09:30:01;;;;;;;;;;;20.90;59.50;;;;;;5149285;27;19923;-74
2022/04/01 09:32:35;;;;;;;;;;;21.20;59.10;;;;;;5148757;27;19971;-74
2022/04/01 09:35:02;;;;;;;;;;;21.30;58.60;;;;;;5150760;27;19911;-74
2022/04/01 09:37:37;;;;;;;;;;;21.20;58.10;;;;;;5113493;27;19972;-74
2022/04/01 09:40:04;;;;;;;;;;;21.20;58.20;;;;;;5148402;27;19911;-75
2022/04/01 09:42:29;;;;;;;;;;;21.10;57.30;;;;;;5149930;27;19954;-75
2022/04/01 09:44:58;;;;;;;;;;;20.70;57.10;;;;;;5110992;27;20047;-74
2022/04/01 09:47:24;;;;;;;;;;;20.80;57.90;;;;;;5130929;27;19939;-75
2022/04/01 09:49:52;;;;;;;;;;;21.40;58.10;;;;;;5148992;27;20367;-75
2022/04/01 09:52:22;;;;;;;;;;;21.90;57.70;;;;;;5110150;28;19922;-72
2022/04/01 09:54:47;;;;;;;;;;;22.20;56.70;;;;;;5147587;27;20329;-74
2022/04/01 09:57:13;;;;;;;;;;;21.80;55.60;;;;;;5149409;27;20025;-75
2022/04/01 09:59:41;;;;;;;;;;;20.60;55.60;;;;;;5149115;27;20036;-75
2022/04/01 10:02:06;;;;;;;;;;;20.20;56.90;;;;;;5149747;27;19923;-75
2022/04/01 10:04:32;;;;;;;;;;;20.20;56.70;;;;;;5151060;27;20411;-74
2022/04/01 10:06:58;;;;;;;;;;;20.30;56.80;;;;;;5113672;27;19979;-74
2022/04/01 10:09:25;;;;;;;;;;;20.30;56.00;;;;;;5149373;27;20298;-76
2022/04/01 10:11:51;;;;;;;;;;;20.10;56.40;;;;;;5150153;27;19915;-76
2022/04/01 10:14:19;;;;;;;;;;;20.30;56.60;;;;;;5149732;27;19926;-77
2022/04/01 10:16:45;;;;;;;;;;;20.00;55.30;;;;;;5130970;27;19954;-75
2022/04/01 10:19:12;;;;;;;;;;;19.00;54.40;;;;;;5131833;27;20017;-76
2022/04/01 10:21:56;;;;;;;;;;;18.20;55.50;;;;;;5149678;27;20672;-75
2022/04/01 10:24:40;;;;;;;;;;;18.30;56.20;;;;;;5147793;27;19979;-77
2022/04/01 10:27:08;;;;;;;;;;;18.70;56.10;;;;;;5151672;27;19967;-74
2022/04/01 10:29:35;;;;;;;;;;;19.00;55.00;;;;;;5148553;27;19946;-78
2022/04/01 10:32:19;;;;;;;;;;;19.00;54.70;;;;;;5148881;27;20264;-79
2022/04/01 10:34:48;;;;;;;;;;;19.20;54.90;;;;;;5131032;27;20380;-77
2022/04/01 10:37:15;;;;;;;;;;;19.40;54.70;;;;;;5148839;27;19919;-76
2022/04/01 10:40:10;;;;;;;;;;;19.70;54.80;;;;;;5130072;27;19907;-78
2022/04/01 10:42:41;;;;;;;;;;;20.20;54.60;;;;;;5121775;27;19911;-75
2022/04/01 10:45:19;;;;;;;;;;;20.60;53.30;;;;;;5152791;27;19915;-75
2022/04/01 10:53:37;;;;;;;;;;;20.80;52.50;;;;;;5150463;27;19949;-78
2022/04/01 10:56:24;;;;;;;;;;;20.90;52.10;;;;;;5152645;27;19946;-79
2022/04/01 10:59:08;;;;;;;;;;;21.00;53.10;;;;;;5153385;27;20337;-76
2022/04/01 11:01:36;;;;;;;;;;;21.30;52.30;;;;;;5160549;27;19922;-78
2022/04/01 11:04:22;;;;;;;;;;;21.20;51.10;;;;;;5152771;27;20002;-77
2022/04/01 11:07:03;;;;;;;;;;;21.20;51.40;;;;;;5151780;27;19911;-75
2022/04/01 11:09:39;;;;;;;;;;;21.10;50.80;;;;;;5133291;27;20231;-75
2022/04/01 11:12:27;;;;;;;;;;;21.00;50.90;;;;;;5148521;27;19946;-73
2022/04/01 11:14:59;;;;;;;;;;;21.10;51.50;;;;;;5130207;27;19921;-74
2022/04/01 11:17:34;;;;;;;;;;;21.20;51.70;;;;;;5152695;27;19993;-74
2022/04/01 11:20:00;;;;;;;;;;;21.20;51.80;;;;;;5152683;27;19907;-74
2022/04/01 11:22:49;;;;;;;;;;;21.30;51.80;;;;;;5153104;27;19911;-74
2022/04/01 11:25:33;;;;;;;;;;;21.80;52.00;;;;;;5144195;27;20250;-74
2022/04/01 11:28:01;;;;;;;;;;;22.40;51.80;;;;;;5152988;27;19911;-74
2022/04/01 11:30:31;;;;;;;;;;;22.90;51.70;;;;;;5152086;27;19906;-75
2022/04/01 11:32:59;;;;;;;;;;;23.10;51.80;;;;;;5134568;27;19943;-75
2022/04/01 11:35:29;;;;;;;;;;;22.80;51.20;;;;;;5133781;27;19911;-73
2022/04/01 11:37:55;;;;;;;;;;;22.30;51.40;;;;;;5154372;27;19918;-73
2022/04/01 11:40:25;;;;;;;;;;;22.30;52.10;;;;;;5151504;27;19907;-74
2022/04/01 11:42:54;;;;;;;;;;;22.80;52.20;;;;;;5151400;27;19912;-73
2022/04/01 11:45:20;;;;;;;;;;;23.10;51.10;;;;;;5151762;27;19971;-74
2022/04/01 11:47:49;;;;;;;;;;;23.70;50.80;;;;;;5133093;27;19915;-73
2022/04/01 11:50:16;;;;;;;;;;;24.00;50.50;;;;;;5133110;27;19960;-72
2022/04/01 11:52:43;;;;;;;;;;;23.00;49.80;;;;;;5151943;27;19946;-72
2022/04/01 11:55:10;;;;;;;;;;;21.80;49.30;;;;;;5151070;27;19950;-73
2022/04/01 11:57:36;;;;;;;;;;;21.00;50.30;;;;;;5151311;27;19922;-73
2022/04/01 12:00:02;;;;;;;;;;;20.80;50.70;;;;;;5151220;27;19919;-73
2022/04/01 12:02:28;;;;;;;;;;;20.00;50.00;;;;;;5150889;27;20017;-73
2022/04/01 12:04:54;;;;;;;;;;;19.80;51.00;;;;;;5132051;27;19923;-73
2022/04/01 12:10:16;;;;;;;;;;;20.30;51.60;;;;;;5149936;27;19934;-74
2022/04/01 12:12:51;;;;;;;;;;;20.90;51.20;;;;;;5150787;27;19921;-74
2022/04/01 12:15:16;;;;;;;;;;;21.50;51.30;;;;;;5149719;27;19918;-74
2022/04/01 12:17:49;;;;;;;;;;;22.10;50.30;;;;;;5132043;27;19911;-75
2022/04/01 12:20:14;;;;;;;;;;;21.60;49.80;;;;;;5129563;27;19919;-74
2022/04/01 12:22:43;;;;;;;;;;;20.70;49.50;;;;;;5150960;27;19919;-74
2022/04/01 12:25:09;;;;;;;;;;;20.30;50.50;;;;;;5131657;27;19915;-74
2022/04/01 12:27:49;;;;;;;;;;;20.30;50.80;;;;;;5150797;27;20266;-74
2022/04/01 12:30:29;;;;;;;;;;;20.30;50.80;;;;;;5150061;27;19911;-74
2022/04/01 12:32:55;;;;;;;;;;;20.30;50.30;;;;;;5149372;27;20405;-73
2022/04/01 12:35:22;;;;;;;;;;;20.40;50.70;;;;;;5150368;27;19907;-73
2022/04/01 12:38:02;;;;;;;;;;;20.80;51.00;;;;;;5147890;27;19946;-71
2022/04/01 12:40:27;;;;;;;;;;;21.20;50.90;;;;;;5147748;27;19910;-72
2022/04/01 12:42:53;;;;;;;;;;;21.30;50.40;;;;;;5150832;27;19934;-73
2022/04/01 12:45:19;;;;;;;;;;;21.20;49.90;;;;;;5151062;27;19915;-72
2022/04/01 12:47:44;;;;;;;;;;;20.90;49.00;;;;;;5150416;27;19911;-74
2022/04/01 12:50:29;;;;;;;;;;;20.70;49.80;;;;;;5150518;27;19915;-73
2022/04/01 12:53:07;;;;;;;;;;;20.80;49.60;;;;;;5148707;27;20380;-72
2022/04/01 12:55:32;;;;;;;;;;;20.50;49.70;;;;;;5148157;27;19956;-73
2022/04/01 12:57:58;;;;;;;;;;;20.40;49.50;;;;;;5150141;27;19946;-73
2022/04/01 13:00:24;;;;;;;;;;;20.10;49.20;;;;;;5131287;27;19933;-73
2022/04/01 13:02:50;;;;;;;;;;;19.60;48.70;;;;;;5149861;27;19954;-73
2022/04/01 13:05:16;;;;;;;;;;;19.10;49.10;;;;;;5131352;27;19957;-74
2022/04/01 13:07:42;;;;;;;;;;;18.90;49.10;;;;;;5131643;27;19919;-72
2022/04/01 13:10:07;;;;;;;;;;;18.90;50.00;;;;;;5147282;27;20010;-73
2022/04/01 13:12:37;;;;;;;;;;;19.10;50.00;;;;;;5149933;27;19911;-74
2022/04/01 13:15:04;;;;;;;;;;;19.40;50.20;;;;;;5150153;27;19916;-74
2022/04/01 13:17:39;;;;;;;;;;;19.80;49.90;;;;;;5149942;27;20011;-72
2022/04/01 13:20:05;;;;;;;;;;;19.70;48.80;;;;;;5149748;27;19980;-71
2022/04/01 13:22:30;;;;;;;;;;;19.30;48.80;;;;;;5149581;27;20413;-73
2022/04/01 13:24:56;;;;;;;;;;;19.30;48.60;;;;;;5131440;27;19950;-73
2022/04/01 13:27:22;;;;;;;;;;;19.20;48.30;;;;;;5149341;27;19915;-73
2022/04/01 13:29:48;;;;;;;;;;;19.00;48.50;;;;;;5146619;27;20230;-73
2022/04/01 13:32:14;;;;;;;;;;;18.90;48.60;;;;;;5149304;27;19923;-74
2022/04/01 13:34:40;;;;;;;;;;;18.70;48.40;;;;;;5130901;27;20285;-71
2022/04/01 13:37:08;;;;;;;;;;;18.20;48.10;;;;;;5141027;27;20416;-73
2022/04/01 13:39:34;;;;;;;;;;;17.70;48.40;;;;;;5148927;27;19926;-74
2022/04/01 13:42:00;;;;;;;;;;;17.20;48.30;;;;;;5149619;27;19920;-72
2022/04/01 13:44:27;;;;;;;;;;;16.80;48.50;;;;;;5149214;27;19918;-73
2022/04/01 13:46:52;;;;;;;;;;;16.60;48.80;;;;;;5149753;27;19952;-73
2022/04/01 13:49:19;;;;;;;;;;;16.70;49.10;;;;;;5149336;27;20225;-73
2022/04/01 13:51:45;;;;;;;;;;;16.90;49.10;;;;;;5149173;27;20280;-74
2022/04/01 13:54:10;;;;;;;;;;;17.10;48.80;;;;;;5149305;27;20002;-73
2022/04/01 13:56:36;;;;;;;;;;;17.00;48.10;;;;;;5149019;27;19998;-73
2022/04/01 13:59:02;;;;;;;;;;;16.80;48.00;;;;;;5148910;27;19911;-73
2022/04/01 14:01:28;;;;;;;;;;;16.50;48.20;;;;;;5128830;28;19912;-73
2022/04/01 14:03:54;;;;;;;;;;;16.30;48.10;;;;;;5128900;28;19976;-73
2022/04/01 14:06:21;;;;;;;;;;;15.90;47.90;;;;;;5128820;28;20025;-72
2022/04/01 14:08:47;;;;;;;;;;;15.60;48.00;;;;;;5097338;27;19934;-74
2022/04/01 14:11:13;;;;;;;;;;;15.40;48.00;;;;;;5149637;27;19911;-73
2022/04/01 14:13:38;;;;;;;;;;;15.20;48.10;;;;;;5150229;27;20345;-74
2022/04/01 14:16:05;;;;;;;;;;;15.10;48.30;;;;;;5149500;27;20029;-73
2022/04/01 14:18:31;;;;;;;;;;;15.00;48.00;;;;;;5151765;27;20330;-72
2022/04/01 14:20:57;;;;;;;;;;;14.80;48.00;;;;;;5135234;27;19915;-73
2022/04/01 14:23:31;;;;;;;;;;;14.70;48.10;;;;;;5153320;27;19907;-73
2022/04/01 14:26:06;;;;;;;;;;;14.60;47.90;;;;;;5153477;27;20480;-73
2022/04/01 14:28:35;;;;;;;;;;;14.50;47.90;;;;;;5118800;27;19912;-73
2022/04/01 14:31:02;;;;;;;;;;;14.20;48.00;;;;;;5153611;27;19957;-73
2022/04/01 14:33:27;;;;;;;;;;;14.20;48.10;;;;;;5153625;27;19918;-73
2022/04/01 14:35:53;;;;;;;;;;;14.20;48.30;;;;;;5153425;27;20349;-73
2022/04/01 14:38:21;;;;;;;;;;;14.30;48.10;;;;;;5153577;27;19911;-74
2022/04/01 14:40:50;;;;;;;;;;;14.30;48.10;;;;;;5153004;27;19961;-73
2022/04/01 14:43:16;;;;;;;;;;;14.30;48.20;;;;;;5134528;27;19912;-72